• Join FlightAware (Why Join?)
  • Login
  • US Flag 
06:28PM EST


 

Airport Tracker/Info


-or-


 

Live Flight TrackerFlight Track Log ✈ SIL4062 ✈ 14-May-2013 ✈ KIAD - KCKB

Flight Track Log - Related Links

Times and Time Zones

All times are in EDT time to prevent confusion due to time zone crossing. See the SIL4062 flight status page for this flight to view local times or setup timezone preferences in your user account.

Time Position Orientation Groundspeed Altitude Reporting Facility
EDT Latitude Longitude Course Direction KTS MPH feet Rate Location/Type
08:49AM 38.9500 -77.5167 270° West 143 165 2,000  Level Potomac TRACON
08:50AM 38.9500 -77.5667 270° West 144 166 3,500 960 Climbing Potomac TRACON
08:51AM 38.9333 -77.6167 247° West 184 212 4,000 600 Climbing Potomac TRACON
08:52AM 38.9281 -77.7078 266° West 213 245 4,800 1,200 Climbing Washington Center
08:53AM 38.9125 -77.7658 251° West 169 194 6,500 1,440 Climbing Washington Center
08:54AM 38.8928 -77.8186 244° Southwest 169 194 7,700 720 Climbing Washington Center
08:55AM 38.8728 -77.8794 247° West 192 221 8,000 120 Climbing Washington Center
08:56AM 38.8592 -77.9403 254° West 212 244 8,000  Level Washington Center
08:57AM 38.8450 -78.0197 257° West 218 251 8,000 660 Level Washington Center
08:58AM 38.8375 -78.0889 262° West 217 250 9,400 960 Climbing Washington Center
08:59AM 38.8319 -78.1553 264° West 204 235 10,000 240 Climbing Washington Center
09:00AM 38.8492 -78.2225 288° West 198 228 10,000  Level Washington Center
09:01AM 38.8811 -78.2822 305° West 203 234 10,000  Level Washington Center
09:02AM 38.9172 -78.3450 306° West 208 239 10,000  Level Washington Center
09:03AM 38.9492 -78.4131 301° West 214 246 10,000  Level Washington Center
09:04AM 38.9808 -78.4783 302° West 214 246 10,000  Level Washington Center
09:05AM 39.0125 -78.5489 300° West 214 246 10,000  Level Washington Center
09:06AM 39.0422 -78.6169 299° West 214 246 10,000  Level Washington Center
09:07AM 39.0736 -78.6906 299° West 219 252 10,000  Level Washington Center
09:08AM 39.0969 -78.7531 296° West 219 252 10,000  Level Washington Center
09:09AM 39.1286 -78.8239 300° West 219 252 10,000  Level Washington Center
09:10AM 39.1581 -78.8894 300° West 219 252 10,000  Level Washington Center
09:11AM 39.1897 -78.9525 303° West 219 252 10,000  Level Washington Center
09:12AM 39.2167 -79.0233 296° West 219 252 10,000  Level Washington Center
09:13AM 39.2103 -79.1036 264° West 213 245 10,000  Level Washington Center
09:14AM 39.2017 -79.1861 262° West 219 252 10,000  Level Washington Center
09:16AM 39.2256 -79.2721 290° West  Level FlightAware Approximate
09:23AM 39.2333 -79.8011 270° West  Level FlightAware Approximate
09:24AM 39.2333 -79.8762 270° West  Level FlightAware Approximate
09:25AM 39.2333 -79.9513 270° West  Level FlightAware Approximate
09:26AM 39.2333 -80.0264 270° West  Level FlightAware Approximate
09:27AM 39.2480 -80.0960 303° West  Level FlightAware Approximate
09:28AM 39.2500 -80.1703 270° West  Level FlightAware Approximate
09:29AM 39.2500 -80.2455 270° West  Level FlightAware Approximate
09:30AM 39.2754 -80.2246 38° Northeast  Level FlightAware Approximate
09:31AM 39.2833 -80.2167 38° Northeast  Level FlightAware Approximate